Terminal Aerodrome Forecast
Issued by NWS Rapid City, SD

Home | Current Version | Previous Version | Graphics & Text | Print | Product List | Glossary On
Versions: 1 2 3 4 5 6 7 8 9 10 11 12 13 14 15 16 17 18 19 20
000
FTUS43 KUNR 232200 AAA
TAFRAP
TAF AMD
KRAP 232212Z 2322/2418 32028G40KT P6SM SCT040
     FM240200 33022G32KT P6SM SCT120
     FM240500 33014KT P6SM SCT025
     FM241500 33023G33KT P6SM BKN030=

USA.gov is the U.S. government's official web portal to all federal, state and local government web resources and services.